createdAt,value
2023-05-14T00:00:12.374Z,9.6053
2023-05-14T00:01:13.148Z,9.6264
2023-05-14T00:02:13.849Z,9.5901
2023-05-14T00:03:16.053Z,9.5907
2023-05-14T00:04:16.231Z,9.6257
2023-05-14T00:05:16.911Z,9.5882
2023-05-14T00:06:16.933Z,9.5632
2023-05-14T00:07:17.592Z,9.5422
2023-05-14T00:08:18.297Z,9.4836
2023-05-14T00:10:18.542Z,9.4867
2023-05-14T00:11:18.551Z,9.4953
2023-05-14T00:12:18.603Z,9.4645
2023-05-14T00:13:18.634Z,9.3997
2023-05-14T00:15:19.474Z,9.3032
2023-05-14T00:16:19.558Z,9.3099
2023-05-14T00:18:20.520Z,9.2739
2023-05-14T00:19:41.551Z,9.2370
2023-05-14T00:20:23.020Z,9.1995
2023-05-14T00:21:23.943Z,9.2068
2023-05-14T00:22:24.582Z,9.1802
2023-05-14T00:23:24.636Z,9.1419
2023-05-14T00:24:25.314Z,9.1503
2023-05-14T00:25:25.372Z,9.1527
2023-05-14T00:26:25.401Z,9.1840
2023-05-14T00:27:26.033Z,9.1330
2023-05-14T00:28:26.078Z,9.0909
2023-05-14T00:29:26.121Z,9.0693
2023-05-14T00:30:26.190Z,9.0300
2023-05-14T00:31:26.883Z,9.0112
2023-05-14T00:32:26.914Z,9.0096
2023-05-14T00:33:27.767Z,9.0544
2023-05-14T00:34:28.450Z,8.9948
2023-05-14T00:35:28.484Z,8.9671
2023-05-14T00:36:29.073Z,8.9028
2023-05-14T00:37:30.061Z,8.9398
2023-05-14T00:38:30.090Z,8.9978
2023-05-14T00:39:30.891Z,8.9847
2023-05-14T00:40:31.988Z,9.0437
2023-05-14T00:41:32.053Z,9.0337
2023-05-14T00:42:32.697Z,9.0002
2023-05-14T00:43:33.650Z,8.9137
2023-05-14T00:45:36.901Z,8.9110
2023-05-14T00:46:37.883Z,8.9264
2023-05-14T00:47:37.947Z,8.9559
2023-05-14T00:48:38.767Z,8.9820
2023-05-14T00:49:38.742Z,8.9803
2023-05-14T00:50:39.472Z,8.9764
2023-05-14T00:51:40.612Z,8.9763
2023-05-14T00:52:41.344Z,8.9567
2023-05-14T00:53:41.404Z,8.8994
2023-05-14T00:54:41.430Z,8.9546
2023-05-14T00:55:41.495Z,9.0161
2023-05-14T00:56:42.077Z,8.9772
2023-05-14T00:57:43.029Z,8.9504
2023-05-14T00:58:43.061Z,8.9672
2023-05-14T00:59:43.138Z,9.0221
2023-05-14T01:00:43.267Z,9.0665
2023-05-14T01:01:43.957Z,9.0887
2023-05-14T01:02:44.065Z,9.0825
2023-05-14T01:03:44.245Z,9.0967
2023-05-14T01:04:44.968Z,9.1027
2023-05-14T01:05:44.985Z,9.1098
2023-05-14T01:06:45.664Z,9.1274
2023-05-14T01:07:46.334Z,9.1378
2023-05-14T01:08:47.057Z,9.1389
2023-05-14T01:09:47.101Z,9.1255
2023-05-14T01:10:47.155Z,9.1716
2023-05-14T01:11:47.864Z,9.1569
2023-05-14T01:12:47.908Z,9.1101
2023-05-14T01:13:48.993Z,9.1175
2023-05-14T01:14:49.930Z,9.0808
2023-05-14T01:15:49.954Z,9.0384
2023-05-14T01:16:50.081Z,9.0584
2023-05-14T01:17:50.158Z,9.0646
2023-05-14T01:18:50.266Z,9.0495
2023-05-14T01:19:50.341Z,9.0805
2023-05-14T01:20:50.384Z,9.1408
2023-05-14T01:21:50.427Z,9.1389
2023-05-14T01:22:50.452Z,9.1351
2023-05-14T01:23:50.523Z,9.1551
2023-05-14T01:24:50.558Z,9.1597
2023-05-14T01:25:50.578Z,9.1492
2023-05-14T01:26:50.626Z,9.1148
2023-05-14T01:27:51.006Z,9.1084
2023-05-14T01:28:51.104Z,9.0918
2023-05-14T01:29:51.114Z,9.0756
2023-05-14T01:30:51.774Z,9.0521
2023-05-14T01:31:51.833Z,9.0294
2023-05-14T01:32:52.482Z,9.0379
2023-05-14T01:33:53.307Z,9.0215
2023-05-14T01:34:53.612Z,9.0584
2023-05-14T01:35:54.356Z,9.0575
2023-05-14T01:36:54.699Z,9.0739
2023-05-14T01:37:54.739Z,9.0943
2023-05-14T01:38:55.926Z,9.0868
2023-05-14T01:39:55.998Z,9.0844
2023-05-14T01:40:56.426Z,9.0835
2023-05-14T01:41:57.187Z,9.0817
2023-05-14T01:42:57.253Z,9.0749
2023-05-14T01:43:58.066Z,9.0544
2023-05-14T01:44:58.764Z,9.0307
2023-05-14T01:45:58.816Z,9.0216
2023-05-14T01:46:59.492Z,9.0282
2023-05-14T01:48:00.796Z,9.0342
2023-05-14T01:49:00.856Z,9.0294
2023-05-14T01:50:01.491Z,9.0384
2023-05-14T01:51:01.692Z,8.9991
2023-05-14T01:53:02.982Z,8.9954
2023-05-14T01:54:03.008Z,9.0002
2023-05-14T01:55:03.691Z,8.9903
2023-05-14T01:56:04.302Z,8.9917
2023-05-14T01:57:05.063Z,8.9748
2023-05-14T01:58:06.556Z,8.9853
2023-05-14T01:59:06.597Z,8.9905
2023-05-14T02:00:07.258Z,8.9966
2023-05-14T02:01:08.603Z,8.9735
2023-05-14T02:07:13.546Z,8.8704
2023-05-14T02:08:13.583Z,8.8645
2023-05-14T02:09:13.612Z,8.8851
2023-05-14T02:10:14.243Z,8.8726
2023-05-14T02:11:14.280Z,8.8478
2023-05-14T02:13:15.142Z,8.8883
2023-05-14T02:14:16.276Z,8.8933
2023-05-14T02:19:23.936Z,8.8439
2023-05-14T02:20:24.624Z,8.8297
2023-05-14T02:21:25.189Z,8.8197
2023-05-14T02:22:26.039Z,8.8239
2023-05-14T02:23:37.983Z,8.7905
2023-05-14T02:24:26.703Z,8.7859
2023-05-14T02:25:27.548Z,8.7780
2023-05-14T02:26:28.218Z,8.7884
2023-05-14T02:27:28.671Z,8.7683
2023-05-14T02:28:29.322Z,8.7563
2023-05-14T02:29:29.424Z,8.7484
2023-05-14T02:30:29.817Z,8.7888
2023-05-14T02:31:30.898Z,8.8004
2023-05-14T02:32:31.250Z,8.7489
2023-05-14T02:33:32.452Z,8.7510
2023-05-14T02:34:33.484Z,8.7589
2023-05-14T02:35:33.559Z,8.7873
2023-05-14T02:36:34.404Z,8.7756
2023-05-14T02:37:35.630Z,8.7419
2023-05-14T02:38:35.692Z,8.6953
2023-05-14T02:39:36.361Z,8.6811
2023-05-14T02:40:36.504Z,8.7057
2023-05-14T02:41:37.933Z,8.6840
2023-05-14T02:42:38.856Z,8.6394
2023-05-14T02:43:38.911Z,8.6204
2023-05-14T02:44:40.416Z,8.5651
2023-05-14T02:45:41.169Z,8.5831
2023-05-14T02:46:41.616Z,8.5607
2023-05-14T02:47:42.607Z,8.5167
2023-05-14T02:48:43.785Z,8.4612
2023-05-14T02:49:43.835Z,8.4367
2023-05-14T02:50:44.703Z,8.4569
2023-05-14T02:51:44.968Z,8.4329
2023-05-14T02:52:45.109Z,8.4231
2023-05-14T02:53:45.344Z,8.4403
2023-05-14T02:54:46.420Z,8.4663
2023-05-14T02:55:46.513Z,8.4427
2023-05-14T02:56:47.375Z,8.4219
2023-05-14T02:57:47.633Z,8.4103
2023-05-14T02:59:48.268Z,8.4557
2023-05-14T03:00:48.854Z,8.4447
2023-05-14T03:01:50.400Z,8.4795
2023-05-14T03:02:51.124Z,8.4872
2023-05-14T03:03:51.883Z,8.4901
2023-05-14T03:04:52.717Z,8.4966
2023-05-14T03:05:52.927Z,8.4827
2023-05-14T03:06:53.575Z,8.4940
2023-05-14T03:07:54.526Z,8.4943
2023-05-14T03:08:54.754Z,8.4670
2023-05-14T03:09:55.512Z,8.4750
2023-05-14T03:10:56.327Z,8.4880
2023-05-14T03:11:56.779Z,8.4924
2023-05-14T03:12:57.638Z,8.5106
2023-05-14T03:13:57.693Z,8.5074
2023-05-14T03:14:58.998Z,8.5276
2023-05-14T03:15:59.939Z,8.5363
2023-05-14T03:17:00.841Z,8.5407
2023-05-14T03:18:01.123Z,8.5201
2023-05-14T03:19:01.322Z,8.5130
2023-05-14T03:20:01.968Z,8.4803
2023-05-14T03:21:02.824Z,8.4794
2023-05-14T03:22:02.882Z,8.4847
2023-05-14T03:23:03.139Z,8.4560
2023-05-14T03:24:03.375Z,8.4552
2023-05-14T03:25:04.249Z,8.3839
2023-05-14T03:26:04.576Z,8.3749
2023-05-14T03:27:04.638Z,8.3512
2023-05-14T03:28:05.461Z,8.2909
2023-05-14T03:29:05.516Z,8.3084
2023-05-14T03:30:06.770Z,8.2454
2023-05-14T03:31:07.569Z,8.1909
2023-05-14T03:32:08.279Z,8.1144
2023-05-14T03:33:09.108Z,8.0880
2023-05-14T03:34:09.205Z,8.0973
2023-05-14T03:35:10.782Z,8.0728
2023-05-14T03:36:11.754Z,8.0649
2023-05-14T03:38:13.236Z,7.9535
2023-05-14T03:39:13.713Z,7.9214
2023-05-14T03:40:14.969Z,7.9251
2023-05-14T03:41:16.007Z,7.9345
2023-05-14T03:42:16.889Z,7.9053
2023-05-14T03:43:17.005Z,7.9696
2023-05-14T03:44:17.965Z,8.0381
2023-05-14T03:45:19.574Z,8.0367
2023-05-14T03:46:21.521Z,8.0225
2023-05-14T03:48:25.359Z,7.9561
2023-05-14T03:49:25.491Z,7.9122
2023-05-14T03:50:26.347Z,7.9599
2023-05-14T03:51:27.113Z,7.9540
2023-05-14T03:52:27.155Z,7.9452
2023-05-14T03:53:27.887Z,7.9373
2023-05-14T03:54:28.499Z,7.9483
2023-05-14T03:55:28.603Z,7.9388
2023-05-14T03:56:29.768Z,7.9793
2023-05-14T03:57:30.411Z,7.9524
2023-05-14T03:58:30.501Z,7.9879
2023-05-14T03:59:31.841Z,8.0077
2023-05-14T04:00:32.932Z,8.0653
2023-05-14T04:01:32.999Z,8.1017
2023-05-14T04:02:33.805Z,8.1283
2023-05-14T04:03:34.094Z,8.1505
2023-05-14T04:04:35.447Z,8.1556
2023-05-14T04:05:35.554Z,8.1516
2023-05-14T04:06:35.624Z,8.1655
2023-05-14T04:07:36.405Z,8.1821
2023-05-14T04:08:37.237Z,8.2143
2023-05-14T04:09:37.961Z,8.2112
2023-05-14T04:10:38.071Z,8.2451
2023-05-14T04:11:38.145Z,8.2729
2023-05-14T04:12:38.906Z,8.3102
2023-05-14T04:13:39.461Z,8.3588
2023-05-14T04:14:39.553Z,8.4128
2023-05-14T04:15:40.558Z,8.4158
2023-05-14T04:16:40.750Z,8.4185
2023-05-14T04:17:41.249Z,8.4310
2023-05-14T04:18:41.984Z,8.4585
2023-05-14T04:19:42.738Z,8.5054
2023-05-14T04:25:47.636Z,8.6932
2023-05-14T04:26:48.467Z,8.7217
2023-05-14T04:27:49.145Z,8.6984
2023-05-14T04:28:49.227Z,8.7110
2023-05-14T04:29:49.953Z,8.7480
2023-05-14T04:30:50.850Z,8.7890
2023-05-14T04:31:50.962Z,8.8225
2023-05-14T04:32:51.697Z,8.8607
2023-05-14T04:33:51.778Z,8.8672
2023-05-14T04:34:52.458Z,8.9190
2023-05-14T04:35:52.596Z,8.9294
2023-05-14T04:36:53.346Z,8.8854
2023-05-14T04:37:54.193Z,8.8866
2023-05-14T04:38:54.843Z,8.9470
2023-05-14T04:39:55.730Z,8.9928
2023-05-14T04:40:56.475Z,8.9743
2023-05-14T04:41:56.571Z,8.9598
2023-05-14T04:42:57.249Z,8.9899
2023-05-14T04:43:57.932Z,8.9722
2023-05-14T04:44:57.994Z,9.0307
2023-05-14T04:45:58.962Z,9.0369
2023-05-14T04:46:59.714Z,9.0738
2023-05-14T04:47:59.836Z,9.1341
2023-05-14T04:49:00.611Z,9.1586
2023-05-14T04:50:00.689Z,9.1688
2023-05-14T04:57:07.497Z,9.5427
2023-05-14T04:58:07.625Z,9.5923
2023-05-14T04:59:07.959Z,9.5342
2023-05-14T05:00:08.060Z,9.5697
2023-05-14T05:01:08.251Z,9.5920
2023-05-14T05:02:08.322Z,9.6410
2023-05-14T05:03:09.086Z,9.7507
2023-05-14T05:04:09.358Z,9.7968
2023-05-14T05:05:09.941Z,9.7743
2023-05-14T05:06:10.905Z,9.7762
2023-05-14T05:07:10.978Z,9.7922
2023-05-14T05:08:11.745Z,9.6516
2023-05-14T05:09:12.523Z,9.6871
2023-05-14T05:11:16.133Z,9.8216
2023-05-14T05:12:16.897Z,9.8107
2023-05-14T05:13:18.267Z,9.7473
2023-05-14T05:14:18.356Z,9.8210
2023-05-14T05:15:18.419Z,9.8526
2023-05-14T05:16:18.694Z,9.8628
2023-05-14T05:17:18.789Z,9.8200
2023-05-14T05:18:18.878Z,9.6878
2023-05-14T05:19:20.844Z,9.7306
2023-05-14T05:20:19.797Z,9.8197
2023-05-14T05:21:20.363Z,9.9413
2023-05-14T05:22:20.420Z,9.8691
2023-05-14T05:23:21.645Z,9.9294
2023-05-14T05:24:22.382Z,9.9646
2023-05-14T05:25:23.776Z,10.0832
2023-05-14T05:26:23.842Z,9.9985
2023-05-14T05:27:24.542Z,10.0696
2023-05-14T05:28:24.709Z,10.0970
2023-05-14T05:29:25.373Z,10.1055
2023-05-14T05:30:26.254Z,10.2069
2023-05-14T05:31:26.457Z,10.1278
2023-05-14T05:32:27.234Z,10.1044
2023-05-14T05:33:27.286Z,10.1590
2023-05-14T05:34:28.075Z,10.1717
2023-05-14T05:35:28.973Z,10.2861
2023-05-14T05:36:29.079Z,10.3891
2023-05-14T05:37:30.087Z,10.7336
2023-05-14T05:38:30.189Z,10.6705
2023-05-14T05:39:30.266Z,10.4495
2023-05-14T05:40:30.402Z,10.3698
2023-05-14T05:41:30.460Z,10.3230
2023-05-14T05:42:30.866Z,10.3068
2023-05-14T05:43:31.000Z,10.3026
2023-05-14T05:44:31.107Z,10.2809
2023-05-14T05:45:31.793Z,10.3207
2023-05-14T05:46:31.950Z,10.3310
2023-05-14T05:47:32.654Z,10.2651
2023-05-14T05:48:33.309Z,10.3957
2023-05-14T05:49:33.599Z,10.5799
2023-05-14T05:50:34.329Z,10.7205
2023-05-14T05:51:35.070Z,10.8902
2023-05-14T05:52:35.777Z,10.9499
2023-05-14T05:53:35.865Z,10.9067
2023-05-14T05:54:36.627Z,11.0978
2023-05-14T05:55:37.468Z,11.2712
2023-05-14T05:56:37.553Z,11.3408
2023-05-14T05:57:37.641Z,11.4068
2023-05-14T05:58:37.980Z,11.2761
2023-05-14T05:59:38.090Z,11.3647
2023-05-14T06:00:39.076Z,11.3827
2023-05-14T06:01:40.286Z,11.4902
2023-05-14T06:03:45.268Z,11.2355
2023-05-14T06:04:44.990Z,11.1210
2023-05-14T06:05:45.210Z,11.1666
2023-05-14T06:06:45.958Z,11.2385
2023-05-14T06:07:46.692Z,11.2178
2023-05-14T06:09:46.895Z,10.7762
2023-05-14T06:10:47.634Z,10.7636
2023-05-14T06:27:15.538Z,10.3737
2023-05-14T06:28:16.231Z,10.3747
2023-05-14T06:29:17.034Z,10.3725
2023-05-14T06:31:20.477Z,10.3436
2023-05-14T06:32:21.403Z,10.3246
2023-05-14T06:33:21.586Z,10.5147
2023-05-14T06:34:22.282Z,10.5995
2023-05-14T06:35:23.002Z,10.6861
2023-05-14T06:38:26.354Z,10.8252
2023-05-14T06:39:27.021Z,10.9389
2023-05-14T06:40:27.786Z,10.7758
2023-05-14T06:41:27.848Z,10.7688
2023-05-14T06:42:27.941Z,10.7554
2023-05-14T06:43:45.739Z,10.7828
2023-05-14T06:44:29.610Z,10.8187
2023-05-14T06:45:33.189Z,10.6974
2023-05-14T06:46:33.415Z,10.6412
2023-05-14T06:47:34.267Z,10.7253
2023-05-14T06:48:35.174Z,10.6670
2023-05-14T06:50:35.806Z,10.9923
2023-05-14T06:52:37.487Z,10.9936
2023-05-14T07:03:11.796Z,11.3290
2023-05-14T07:03:53.650Z,11.2035
2023-05-14T07:04:54.187Z,11.2931
2023-05-14T07:05:54.382Z,11.3256
2023-05-14T07:06:55.078Z,11.2067
2023-05-14T07:07:55.220Z,10.9232
2023-05-14T07:08:55.897Z,10.8916
2023-05-14T07:09:56.678Z,10.9553
2023-05-14T07:10:56.759Z,10.9632
2023-05-14T07:11:56.840Z,11.0447
2023-05-14T07:12:57.514Z,10.8974
2023-05-14T07:13:58.249Z,10.8691
2023-05-14T07:14:58.367Z,10.9011
2023-05-14T07:15:58.466Z,10.7611
2023-05-14T07:16:58.639Z,10.8957
2023-05-14T07:17:59.423Z,10.9953
2023-05-14T07:18:59.557Z,11.1374
2023-05-14T07:20:00.294Z,11.2565
2023-05-14T07:21:00.427Z,10.9743
2023-05-14T07:22:01.155Z,11.0176
2023-05-14T07:23:01.233Z,10.9219
2023-05-14T07:24:01.315Z,10.9592
2023-05-14T07:25:02.123Z,11.0883
2023-05-14T07:26:02.209Z,11.1398
2023-05-14T07:27:03.009Z,10.9719
2023-05-14T07:28:03.739Z,11.1424
2023-05-14T07:29:04.594Z,11.2930
2023-05-14T07:31:05.947Z,11.8200
2023-05-14T07:32:06.034Z,11.8608
2023-05-14T07:33:06.813Z,11.7594
2023-05-14T07:34:07.707Z,12.0444
2023-05-14T07:35:07.830Z,12.4794
2023-05-14T07:36:08.546Z,12.9204
2023-05-14T07:37:08.626Z,12.8641
2023-05-14T07:38:09.422Z,12.5685
2023-05-14T07:39:09.512Z,12.7029
2023-05-14T07:40:10.290Z,12.4589
2023-05-14T07:41:10.409Z,12.2894
2023-05-14T07:42:10.448Z,11.8807
2023-05-14T07:43:10.544Z,12.1447
2023-05-14T07:44:10.640Z,12.3808
2023-05-14T07:45:10.932Z,12.2128
2023-05-14T07:46:11.105Z,12.8756
2023-05-14T07:47:11.704Z,13.3672
2023-05-14T07:48:12.186Z,14.0904
2023-05-14T07:49:13.092Z,13.7565
2023-05-14T07:50:14.341Z,14.4716
2023-05-14T07:51:16.186Z,14.3731
2023-05-14T07:52:23.281Z,14.5330
2023-05-14T08:00:28.678Z,15.4955
2023-05-14T08:01:28.870Z,15.4998
2023-05-14T08:02:29.016Z,14.2263
2023-05-14T08:03:42.442Z,13.7687
2023-05-14T08:04:31.708Z,13.5332
2023-05-14T08:05:31.786Z,13.9781
2023-05-14T08:06:32.517Z,14.6454
2023-05-14T08:07:35.159Z,15.2199
2023-05-14T08:08:35.259Z,15.3383
2023-05-14T08:09:35.336Z,14.3300
2023-05-14T08:10:36.187Z,14.7311
2023-05-14T08:11:36.332Z,15.2993
2023-05-14T08:12:36.444Z,14.9650
2023-05-14T08:13:37.206Z,15.0283
2023-05-14T08:14:38.063Z,15.0003
2023-05-14T08:15:38.155Z,14.7889
2023-05-14T08:16:38.887Z,15.6247
2023-05-14T08:17:39.045Z,15.3009
2023-05-14T08:19:40.555Z,13.8119
2023-05-14T08:20:40.640Z,13.7667
2023-05-14T08:21:41.484Z,14.4527
2023-05-14T08:22:41.578Z,14.8327
2023-05-14T08:23:42.554Z,15.2539
2023-05-14T08:24:42.654Z,15.2273
2023-05-14T08:25:42.802Z,15.6361
2023-05-14T08:26:42.866Z,14.2718
2023-05-14T08:27:42.983Z,13.9561
2023-05-14T08:28:43.931Z,13.5061
2023-05-14T08:29:44.030Z,13.0176
2023-05-14T08:30:44.801Z,13.0454
2023-05-14T08:31:44.875Z,13.1198
2023-05-14T08:32:45.579Z,13.1565
2023-05-14T08:33:47.035Z,13.2756
2023-05-14T08:34:48.510Z,13.5161
2023-05-14T08:35:49.252Z,13.4386
2023-05-14T08:36:53.667Z,13.5802
2023-05-14T08:40:54.148Z,13.5538
2023-05-14T08:41:55.161Z,13.9933
2023-05-14T08:42:55.497Z,14.0678
2023-05-14T08:43:56.504Z,13.8195
2023-05-14T08:44:56.840Z,14.1038
2023-05-14T08:45:57.664Z,14.0576
2023-05-14T08:46:58.555Z,14.0994
2023-05-14T08:47:59.656Z,14.0652
2023-05-14T08:49:00.579Z,14.1986
2023-05-14T08:50:01.559Z,13.7352
2023-05-14T08:51:02.149Z,13.5387
2023-05-14T08:52:03.603Z,13.7176
2023-05-14T08:53:03.748Z,14.1678
2023-05-14T08:54:05.585Z,14.5645
2023-05-14T08:55:06.607Z,15.2289
2023-05-14T08:56:07.013Z,15.5592
2023-05-14T08:57:07.157Z,15.3781
2023-05-14T08:58:20.974Z,15.1573
2023-05-14T08:59:21.082Z,14.4721
2023-05-14T09:00:21.316Z,14.9177
2023-05-14T09:01:21.734Z,16.1203
2023-05-14T09:02:22.847Z,16.5866
2023-05-14T09:03:23.349Z,16.1635
2023-05-14T09:04:23.544Z,15.9390
2023-05-14T09:05:24.482Z,16.0619
2023-05-14T09:06:24.765Z,17.9088
2023-05-14T09:07:25.273Z,16.3517
2023-05-14T09:08:28.866Z,17.0196
2023-05-14T09:13:32.857Z,15.7363
2023-05-14T09:14:33.006Z,16.1314
2023-05-14T09:15:33.964Z,15.6233
2023-05-14T09:16:34.747Z,15.9708
2023-05-14T09:17:35.426Z,15.6593
2023-05-14T09:18:36.223Z,15.9276
2023-05-14T09:19:36.327Z,15.7014
2023-05-14T09:20:37.074Z,14.5573
2023-05-14T09:21:37.203Z,14.4111
2023-05-14T09:22:58.334Z,13.7796
2023-05-14T09:23:40.532Z,13.8863
2023-05-14T09:24:41.022Z,13.7276
2023-05-14T09:25:41.869Z,13.7756
2023-05-14T09:26:41.994Z,14.0398
2023-05-14T09:27:42.118Z,13.5941
2023-05-14T09:28:42.236Z,13.6512
2023-05-14T09:29:42.406Z,13.9336
2023-05-14T09:30:42.558Z,13.7028
2023-05-14T09:31:43.501Z,13.4052
2023-05-14T09:32:44.399Z,13.3099
2023-05-14T09:33:44.889Z,13.3189
2023-05-14T09:34:45.466Z,13.4168
2023-05-14T09:35:45.661Z,13.5178
2023-05-14T09:36:46.378Z,13.9219
2023-05-14T09:37:46.673Z,14.0565
2023-05-14T09:38:46.935Z,14.2602
2023-05-14T09:39:47.831Z,14.1307
2023-05-14T09:40:48.181Z,14.0358
2023-05-14T09:41:48.302Z,14.8927
2023-05-14T09:42:48.990Z,14.7872
2023-05-14T09:43:49.922Z,14.7747
2023-05-14T09:45:50.709Z,14.8816
2023-05-14T09:46:51.458Z,14.8962
2023-05-14T09:48:51.962Z,14.6940
2023-05-14T09:49:52.095Z,14.7061
2023-05-14T09:50:52.426Z,14.8206
2023-05-14T09:51:53.299Z,15.1814
2023-05-14T09:52:54.120Z,14.7111
2023-05-14T09:53:54.466Z,14.4199
2023-05-14T09:54:55.454Z,15.0243
2023-05-14T09:55:55.663Z,15.2516
2023-05-14T09:56:55.962Z,14.5113
2023-05-14T09:57:57.150Z,14.2616
2023-05-14T09:58:57.274Z,14.0949
2023-05-14T09:59:57.453Z,13.7902
2023-05-14T10:00:57.711Z,13.9836
2023-05-14T10:01:57.884Z,13.5445
2023-05-14T10:02:58.023Z,13.5399
2023-05-14T10:04:02.562Z,13.8026
2023-05-14T10:10:08.921Z,13.8614
2023-05-14T10:11:09.047Z,13.6731
2023-05-14T10:12:09.696Z,13.8667
2023-05-14T10:13:10.263Z,14.0101
2023-05-14T10:14:11.596Z,14.0038
2023-05-14T10:15:12.328Z,14.6957
2023-05-14T10:16:12.927Z,14.0984
2023-05-14T10:17:13.188Z,14.2713
2023-05-14T10:18:13.355Z,14.3141
2023-05-14T10:19:14.020Z,14.0961
2023-05-14T10:20:14.177Z,14.0826
2023-05-14T10:21:14.287Z,14.0188
2023-05-14T10:22:14.959Z,14.3428
2023-05-14T10:23:16.284Z,14.2233
2023-05-14T10:24:16.440Z,13.7887
2023-05-14T10:25:16.561Z,14.0280
2023-05-14T10:26:17.596Z,14.3664
2023-05-14T10:27:17.736Z,15.0680
2023-05-14T10:28:17.900Z,14.9897
2023-05-14T10:29:18.054Z,15.1936
2023-05-14T10:30:18.200Z,14.7269
2023-05-14T10:31:18.414Z,14.5817
2023-05-14T10:32:18.621Z,14.1619
2023-05-14T10:33:18.868Z,14.2483
2023-05-14T10:34:19.056Z,14.6452
2023-05-14T10:35:20.009Z,14.1751
2023-05-14T10:36:20.136Z,13.7095
2023-05-14T10:37:20.673Z,14.0537
2023-05-14T10:38:20.771Z,13.8784
2023-05-14T10:39:21.869Z,14.2954
2023-05-14T10:40:22.927Z,14.3067
2023-05-14T10:41:23.382Z,14.1785
2023-05-14T10:42:23.561Z,14.2175
2023-05-14T10:43:23.638Z,14.1273
2023-05-14T10:44:23.872Z,14.5162
2023-05-14T10:45:24.421Z,14.7316
2023-05-14T10:46:24.655Z,14.5260
2023-05-14T10:47:24.794Z,14.6869
2023-05-14T10:48:25.080Z,14.2761
2023-05-14T10:49:39.718Z,14.4850
2023-05-14T10:50:26.972Z,14.3312
2023-05-14T10:51:27.786Z,14.7291
2023-05-14T10:52:27.914Z,15.0439
2023-05-14T10:53:28.015Z,15.0041
2023-05-14T10:54:29.126Z,15.2077
2023-05-14T10:55:29.316Z,15.6972
2023-05-14T10:56:29.434Z,15.1766
2023-05-14T10:57:30.260Z,15.0784
2023-05-14T10:58:30.420Z,14.8301
2023-05-14T10:59:31.190Z,14.8538
2023-05-14T11:00:31.359Z,14.6985
2023-05-14T11:01:31.494Z,14.9682
2023-05-14T11:02:32.263Z,14.9380
2023-05-14T11:03:33.125Z,14.5710
2023-05-14T11:04:33.425Z,14.9191
2023-05-14T11:05:33.541Z,15.4189
2023-05-14T11:06:33.682Z,16.0119
2023-05-14T11:07:33.787Z,15.3805
2023-05-14T11:08:33.948Z,16.4420
2023-05-14T11:09:34.685Z,18.4062
2023-05-14T11:10:34.889Z,18.3369
2023-05-14T11:11:35.716Z,18.1631
2023-05-14T11:12:35.871Z,19.1439
2023-05-14T11:13:36.002Z,18.9314
2023-05-14T11:14:36.140Z,17.8521
2023-05-14T11:15:36.344Z,18.4281
2023-05-14T11:16:37.185Z,17.5532
2023-05-14T11:17:37.405Z,17.2804
2023-05-14T11:18:38.274Z,17.1563
2023-05-14T11:19:38.395Z,16.6188
2023-05-14T11:20:38.520Z,16.1916
2023-05-14T11:21:39.527Z,15.3321
2023-05-14T11:22:39.681Z,14.7754
2023-05-14T11:23:40.003Z,14.1119
2023-05-14T11:24:40.191Z,14.3678
2023-05-14T11:25:40.803Z,14.2483
2023-05-14T11:26:41.011Z,14.1445
2023-05-14T11:27:41.813Z,14.1570
2023-05-14T11:28:41.949Z,14.2269
2023-05-14T11:29:42.734Z,14.1292
2023-05-14T11:30:43.755Z,14.1944
2023-05-14T11:33:48.005Z,14.4477
2023-05-14T11:34:48.147Z,14.4603
2023-05-14T11:35:48.302Z,14.0231
2023-05-14T11:36:48.454Z,14.1667
2023-05-14T11:37:50.898Z,14.4140
2023-05-14T11:38:51.054Z,14.4068
2023-05-14T11:39:58.359Z,14.3833
2023-05-14T11:42:10.508Z,15.0399
2023-05-14T11:42:59.144Z,14.9109
2023-05-14T11:43:59.992Z,14.7327
2023-05-14T11:45:00.755Z,14.9579
2023-05-14T11:46:00.960Z,15.3601
2023-05-14T11:47:01.793Z,15.0179
2023-05-14T11:48:01.946Z,15.1643
2023-05-14T11:49:02.723Z,14.9387
2023-05-14T11:50:19.972Z,14.6451
2023-05-14T11:51:42.306Z,14.6374
2023-05-14T11:52:43.341Z,14.2847
2023-05-14T11:53:44.797Z,14.8818
2023-05-14T11:54:45.334Z,14.8861
2023-05-14T11:55:45.674Z,14.9320
2023-05-14T11:57:03.262Z,15.2234
2023-05-14T11:57:47.835Z,15.3746
2023-05-14T11:58:48.623Z,15.4657
2023-05-14T11:59:48.767Z,15.4350
2023-05-14T12:00:50.053Z,15.3685
2023-05-14T12:01:50.993Z,15.7490
2023-05-14T12:02:51.214Z,15.9651
2023-05-14T12:03:52.325Z,16.4026
2023-05-14T12:04:53.831Z,16.4674
2023-05-14T12:05:54.602Z,15.9884
2023-05-14T12:06:54.948Z,15.3733
2023-05-14T12:07:55.496Z,15.0440
2023-05-14T12:08:55.948Z,14.6827
2023-05-14T12:09:56.169Z,14.0788
2023-05-14T12:10:56.447Z,13.5819
2023-05-14T12:11:56.906Z,13.2624
2023-05-14T12:12:57.314Z,12.9596
2023-05-14T12:13:57.709Z,12.5563
2023-05-14T12:14:58.050Z,12.5551
2023-05-14T12:15:58.262Z,12.4827
2023-05-14T12:16:58.645Z,12.4423
2023-05-14T12:18:59.550Z,12.2409
2023-05-14T12:19:59.737Z,12.2339
2023-05-14T12:21:01.497Z,12.1742
2023-05-14T12:22:02.291Z,12.1195
2023-05-14T12:23:02.406Z,12.0502
2023-05-14T12:24:03.345Z,11.9779
2023-05-14T12:25:04.377Z,11.9647
2023-05-14T12:26:04.572Z,12.0222
2023-05-14T12:27:05.635Z,12.1180
2023-05-14T12:28:05.979Z,12.1323
2023-05-14T12:29:06.331Z,12.0186
2023-05-14T12:31:07.389Z,12.0231
2023-05-14T12:32:08.842Z,12.0813
2023-05-14T12:33:09.710Z,12.0187
2023-05-14T12:34:09.856Z,11.9921
2023-05-14T12:35:10.631Z,11.9706
2023-05-14T12:36:21.188Z,11.9337
2023-05-14T12:37:13.912Z,11.8964
2023-05-14T12:38:15.020Z,12.0062
2023-05-14T12:39:15.466Z,12.0791
2023-05-14T12:40:15.625Z,12.1459
2023-05-14T12:41:15.960Z,12.1466
2023-05-14T12:42:17.652Z,12.0705
2023-05-14T12:43:17.818Z,12.2040
2023-05-14T12:44:17.951Z,12.0950
2023-05-14T12:45:18.068Z,12.2375
2023-05-14T12:46:18.193Z,12.1506
2023-05-14T12:47:18.423Z,12.3131
2023-05-14T12:48:18.574Z,12.2336
2023-05-14T12:49:18.728Z,12.4654
2023-05-14T12:50:19.496Z,12.5433
2023-05-14T12:52:36.124Z,12.2283
2023-05-14T12:53:24.047Z,12.3034
2023-05-14T13:03:38.265Z,12.7192
2023-05-14T13:04:38.659Z,12.4845
2023-05-14T13:05:41.422Z,12.4407
2023-05-14T13:09:44.265Z,12.6553
2023-05-14T13:10:44.421Z,12.7976
2023-05-14T13:11:44.563Z,13.0207
2023-05-14T13:12:44.692Z,13.2277
2023-05-14T13:13:44.834Z,13.2395
2023-05-14T13:14:44.982Z,13.3004
2023-05-14T13:15:45.182Z,13.6405
2023-05-14T13:16:45.408Z,13.7333
2023-05-14T13:17:45.682Z,14.0469
2023-05-14T13:18:45.846Z,13.5945
2023-05-14T13:19:45.968Z,13.3661
2023-05-14T13:20:46.127Z,13.0650
2023-05-14T13:21:46.272Z,13.1482
2023-05-14T13:22:46.392Z,13.6229
2023-05-14T13:23:46.532Z,13.7315
2023-05-14T13:24:46.887Z,13.5561
2023-05-14T13:25:49.671Z,13.9487
2023-05-14T13:26:47.351Z,14.2535
2023-05-14T13:27:47.503Z,13.6254
2023-05-14T13:28:47.703Z,13.7636
2023-05-14T13:30:49.049Z,14.1337
2023-05-14T13:31:49.181Z,14.4358
2023-05-14T13:33:50.168Z,13.8668
2023-05-14T13:34:50.338Z,14.2797
2023-05-14T13:35:51.288Z,14.7928
2023-05-14T13:36:52.471Z,14.8672
2023-05-14T13:37:53.973Z,14.8339
2023-05-14T13:38:55.594Z,14.8750
2023-05-14T13:39:56.012Z,14.9321
2023-05-14T13:40:56.389Z,14.4022
2023-05-14T13:41:56.598Z,14.6197
2023-05-14T13:42:57.525Z,14.3907
2023-05-14T13:43:58.308Z,14.5811
2023-05-14T13:44:58.477Z,14.6451
2023-05-14T13:45:58.727Z,14.8813
2023-05-14T13:46:58.916Z,15.2436
2023-05-14T13:47:59.115Z,15.1614
2023-05-14T13:48:59.323Z,14.9683
2023-05-14T13:51:00.188Z,15.1029
2023-05-14T13:52:00.359Z,14.6942
2023-05-14T13:53:01.398Z,14.6395
2023-05-14T13:54:02.223Z,14.9405
2023-05-14T13:55:02.385Z,14.9165
2023-05-14T13:56:03.234Z,14.7522
2023-05-14T13:57:03.470Z,14.9798
2023-05-14T13:58:04.070Z,15.3492
2023-05-14T13:59:04.845Z,15.2318
2023-05-14T14:00:05.751Z,15.3646
2023-05-14T14:01:05.933Z,15.1240
2023-05-14T14:02:06.701Z,15.9174
2023-05-14T14:03:07.701Z,16.3614
2023-05-14T14:04:08.695Z,16.4146
2023-05-14T14:05:08.971Z,16.8361
2023-05-14T14:06:09.840Z,16.9352
2023-05-14T14:07:10.046Z,17.2127
2023-05-14T14:09:10.604Z,17.0973
2023-05-14T14:10:11.543Z,16.1142